createdAt,value
2019-03-20T00:00:43.090Z,46.88
2019-03-20T00:03:14.691Z,50.45
2019-03-20T00:05:46.340Z,53.45
2019-03-20T00:08:18.047Z,52.38
2019-03-20T00:10:49.643Z,51.95
2019-03-20T00:13:21.398Z,50.55
2019-03-20T00:15:53.259Z,51.98
2019-03-20T00:18:25.016Z,49.83
2019-03-20T00:20:56.565Z,44.40
2019-03-20T00:23:29.046Z,50.63
2019-03-20T00:26:00.388Z,43.23
2019-03-20T00:28:32.251Z,43.45
2019-03-20T00:31:04.011Z,40.48
2019-03-20T00:33:35.665Z,45.90
2019-03-20T00:36:07.527Z,43.52
2019-03-20T00:38:39.386Z,40.58
2019-03-20T00:41:11.040Z,41.73
2019-03-20T00:43:42.801Z,38.63
2019-03-20T00:46:14.410Z,42.03
2019-03-20T00:48:46.316Z,34.80
2019-03-20T00:51:17.973Z,35.90
2019-03-20T00:53:49.728Z,42.95
2019-03-20T00:56:21.490Z,37.67
2019-03-20T00:58:53.249Z,47.65
2019-03-20T01:01:25.107Z,42.43
2019-03-20T01:03:56.866Z,45.75
2019-03-20T01:06:28.453Z,41.58
2019-03-20T01:09:00.029Z,49.73
2019-03-20T01:11:31.629Z,53.20
2019-03-20T01:14:03.393Z,50.78
2019-03-20T01:16:35.101Z,41.73
2019-03-20T01:19:06.801Z,43.58
2019-03-20T01:21:39.375Z,44.63
2019-03-20T01:24:11.135Z,43.85
2019-03-20T01:26:42.894Z,46.37
2019-03-20T01:29:14.343Z,56.63
2019-03-20T01:31:45.985Z,55.63
2019-03-20T01:34:17.662Z,50.55
2019-03-20T01:36:49.367Z,55.88
2019-03-20T01:39:21.189Z,52.85
2019-03-20T01:41:52.928Z,52.00
2019-03-20T01:44:24.710Z,54.15
2019-03-20T01:46:56.558Z,58.80
2019-03-20T01:49:28.203Z,54.00
2019-03-20T01:52:00.063Z,51.35
2019-03-20T01:54:31.626Z,47.83
2019-03-20T01:57:03.194Z,47.03
2019-03-20T01:59:35.041Z,38.73
2019-03-20T02:02:06.788Z,41.83
2019-03-20T02:04:38.487Z,45.17
2019-03-20T02:07:10.200Z,45.28
2019-03-20T02:09:42.779Z,43.48
2019-03-20T02:12:14.386Z,47.95
2019-03-20T02:14:46.089Z,45.15
2019-03-20T02:17:17.775Z,44.63
2019-03-20T02:19:49.401Z,45.88
2019-03-20T02:22:21.164Z,40.17
2019-03-20T02:24:52.922Z,43.95
2019-03-20T02:27:24.674Z,40.70
2019-03-20T02:29:56.198Z,44.65
2019-03-20T02:32:27.577Z,46.00
2019-03-20T02:34:59.503Z,42.47
2019-03-20T02:37:31.031Z,46.53
2019-03-20T02:40:02.976Z,43.17
2019-03-20T02:42:34.514Z,37.90
2019-03-20T02:45:08.914Z,39.78
2019-03-20T02:47:40.584Z,43.83
2019-03-20T02:50:13.169Z,44.67
2019-03-20T02:52:45.236Z,39.85
2019-03-20T02:55:17.909Z,37.73
2019-03-20T02:57:49.772Z,42.13
2019-03-20T03:00:21.752Z,38.40
2019-03-20T03:02:53.290Z,44.23
2019-03-20T03:05:24.942Z,38.08
2019-03-20T03:07:56.652Z,38.80
2019-03-20T03:10:28.256Z,44.58
2019-03-20T03:13:00.162Z,43.92
2019-03-20T03:15:31.870Z,39.35
2019-03-20T03:18:03.533Z,45.15
2019-03-20T03:20:35.386Z,45.28
2019-03-20T03:23:07.042Z,45.15
2019-03-20T03:25:38.730Z,41.42
2019-03-20T03:28:10.352Z,42.60
2019-03-20T03:30:42.115Z,41.53
2019-03-20T03:33:13.831Z,42.85
2019-03-20T03:35:45.936Z,40.77
2019-03-20T03:38:17.696Z,44.03
2019-03-20T03:40:49.373Z,43.90
2019-03-20T03:43:24.072Z,51.30
2019-03-20T03:45:54.312Z,42.90
2019-03-20T03:48:25.824Z,45.65
2019-03-20T03:50:57.290Z,49.73
2019-03-20T03:53:29.060Z,45.58
2019-03-20T03:56:00.718Z,52.65
2019-03-20T03:58:32.894Z,47.93
2019-03-20T04:01:04.441Z,45.40
2019-03-20T04:03:36.297Z,44.98
2019-03-20T04:06:07.947Z,45.90
2019-03-20T04:08:39.715Z,48.87
2019-03-20T04:11:11.780Z,50.38
2019-03-20T04:16:14.970Z,48.08
2019-03-20T04:18:46.754Z,52.35
2019-03-20T04:21:18.810Z,48.28
2019-03-20T04:23:51.183Z,75.20
2019-03-20T04:26:22.937Z,64.40
2019-03-20T04:28:54.593Z,60.83
2019-03-20T04:31:26.254Z,61.00
2019-03-20T04:33:58.007Z,57.15
2019-03-20T04:36:29.595Z,54.85
2019-03-20T04:39:01.220Z,56.95
2019-03-20T04:41:33.823Z,66.70
2019-03-20T04:44:05.655Z,66.22
2019-03-20T04:46:37.310Z,68.10
2019-03-20T04:49:09.067Z,72.92
2019-03-20T04:51:41.129Z,66.97
2019-03-20T04:54:12.791Z,60.77
2019-03-20T04:56:44.649Z,79.80
2019-03-20T04:59:16.310Z,88.65
2019-03-20T05:01:48.165Z,91.35
2019-03-20T05:04:19.819Z,67.67
2019-03-20T05:06:58.837Z,84.90
2019-03-20T05:09:24.665Z,101.55
2019-03-20T05:11:56.330Z,115.65
2019-03-20T05:14:28.087Z,94.80
2019-03-20T05:16:59.739Z,68.85
2019-03-20T05:19:31.498Z,109.97
2019-03-20T05:22:03.359Z,72.53
2019-03-20T05:24:35.990Z,126.05
2019-03-20T05:27:07.587Z,69.92
2019-03-20T05:29:39.515Z,59.65
2019-03-20T05:32:11.206Z,81.22
2019-03-20T05:34:43.069Z,118.75
2019-03-20T05:37:14.725Z,62.70
2019-03-20T05:39:46.588Z,69.75
2019-03-20T05:42:18.141Z,82.17
2019-03-20T05:44:49.894Z,55.25
2019-03-20T05:47:21.454Z,51.45
2019-03-20T05:49:53.109Z,60.10
2019-03-20T05:52:24.822Z,50.30
2019-03-20T05:54:56.416Z,56.88
2019-03-20T05:57:28.276Z,59.30
2019-03-20T06:00:00.036Z,59.53
2019-03-20T06:05:03.536Z,54.08
2019-03-20T06:07:35.106Z,57.05
2019-03-20T06:10:09.864Z,59.90
2019-03-20T06:12:42.305Z,65.92
2019-03-20T06:15:14.788Z,53.35
2019-03-20T06:17:47.140Z,47.13
2019-03-20T06:20:18.710Z,52.08
2019-03-20T06:22:50.262Z,64.35
2019-03-20T06:25:21.931Z,67.22
2019-03-20T06:27:53.867Z,52.75
2019-03-20T06:30:25.646Z,63.87
2019-03-20T06:32:59.699Z,53.25
2019-03-20T06:35:32.535Z,45.78
2019-03-20T06:38:04.191Z,51.35
2019-03-20T06:40:36.061Z,62.85
2019-03-20T06:43:07.817Z,54.42
2019-03-20T06:45:40.526Z,47.55
2019-03-20T06:48:11.925Z,57.00
2019-03-20T06:50:43.697Z,61.70
2019-03-20T06:53:15.008Z,60.20
2019-03-20T06:55:46.558Z,57.08
2019-03-20T06:58:18.678Z,56.48
2019-03-20T07:01:04.964Z,48.85
2019-03-20T07:03:49.009Z,57.03
2019-03-20T07:06:46.090Z,55.88
2019-03-20T07:09:32.697Z,52.00
2019-03-20T07:12:04.457Z,55.73
2019-03-20T07:14:36.186Z,69.17
2019-03-20T07:17:08.165Z,61.20
2019-03-20T07:19:40.318Z,51.05
2019-03-20T07:22:12.383Z,60.70
2019-03-20T07:24:44.341Z,50.57
2019-03-20T07:27:16.100Z,47.83
2019-03-20T07:29:47.682Z,49.08
2019-03-20T07:32:19.326Z,57.40
2019-03-20T07:34:51.049Z,50.80
2019-03-20T07:37:22.830Z,46.45
2019-03-20T07:39:54.585Z,48.73
2019-03-20T07:42:26.363Z,36.93
2019-03-20T07:44:58.098Z,34.20
2019-03-20T07:47:29.801Z,37.48
2019-03-20T07:50:01.437Z,38.78
2019-03-20T07:52:33.178Z,23.15
2019-03-20T07:55:05.645Z,24.15
2019-03-20T07:57:37.300Z,24.40
2019-03-20T08:00:12.437Z,27.40
2019-03-20T08:02:43.711Z,33.83
2019-03-20T08:05:15.236Z,42.67
2019-03-20T08:07:46.903Z,30.02
2019-03-20T08:10:23.049Z,28.27
2019-03-20T08:12:54.403Z,52.78
2019-03-20T08:15:25.777Z,47.15
2019-03-20T08:17:57.200Z,47.65
2019-03-20T08:20:29.885Z,37.23
2019-03-20T08:23:01.886Z,28.92
2019-03-20T08:25:34.420Z,37.67
2019-03-20T08:28:06.509Z,34.25
2019-03-20T08:30:38.250Z,36.17
2019-03-20T08:33:10.005Z,36.05
2019-03-20T08:35:42.584Z,42.45
2019-03-20T08:38:18.660Z,32.25
2019-03-20T08:40:47.467Z,30.82
2019-03-20T08:43:19.282Z,27.15
2019-03-20T08:45:51.043Z,28.98
2019-03-20T08:48:22.701Z,29.90
2019-03-20T08:50:54.039Z,26.75
2019-03-20T08:53:25.398Z,37.00
2019-03-20T08:55:58.102Z,30.97
2019-03-20T08:58:29.800Z,39.00
2019-03-20T09:01:04.464Z,26.93
2019-03-20T09:03:35.870Z,31.10
2019-03-20T09:06:07.603Z,31.17
2019-03-20T09:08:39.021Z,28.95
2019-03-20T09:11:10.442Z,32.88
2019-03-20T09:13:41.826Z,28.95
2019-03-20T09:16:13.216Z,31.55
2019-03-20T09:18:44.508Z,34.00
2019-03-20T09:21:15.830Z,29.48
2019-03-20T09:23:47.147Z,31.45
2019-03-20T09:26:18.663Z,34.75
2019-03-20T09:28:51.096Z,34.90
2019-03-20T09:31:23.927Z,33.17
2019-03-20T09:33:55.419Z,27.67
2019-03-20T09:36:27.157Z,32.20
2019-03-20T09:38:58.649Z,30.52
2019-03-20T09:41:30.324Z,30.12
2019-03-20T09:44:02.523Z,31.73
2019-03-20T09:46:34.434Z,31.30
2019-03-20T09:49:06.134Z,26.23
2019-03-20T09:51:37.886Z,28.12
2019-03-20T09:54:09.749Z,29.45
2019-03-20T09:56:41.024Z,43.40
2019-03-20T09:59:12.577Z,45.17
2019-03-20T10:01:43.917Z,46.63
2019-03-20T10:04:15.249Z,35.40
2019-03-20T10:06:46.590Z,43.28
2019-03-20T10:09:20.676Z,29.67
2019-03-20T10:11:52.059Z,31.97
2019-03-20T10:14:24.085Z,30.12
2019-03-20T10:16:55.414Z,28.67
2019-03-20T10:19:26.773Z,26.07
2019-03-20T10:21:58.132Z,24.30
2019-03-20T10:24:30.421Z,24.65
2019-03-20T10:27:01.659Z,21.48
2019-03-20T10:29:33.576Z,25.97
2019-03-20T10:32:05.048Z,23.22
2019-03-20T10:34:39.632Z,20.52
2019-03-20T10:37:09.699Z,18.73
2019-03-20T10:39:41.081Z,20.75
2019-03-20T10:42:12.351Z,23.80
2019-03-20T10:44:43.912Z,23.05
2019-03-20T10:47:15.168Z,24.00
2019-03-20T10:49:46.636Z,26.17
2019-03-20T10:52:18.140Z,32.90
2019-03-20T10:54:49.823Z,27.13
2019-03-20T10:57:21.134Z,28.87
2019-03-20T10:59:52.846Z,33.15
2019-03-20T11:02:24.421Z,37.78
2019-03-20T11:04:55.901Z,31.15
2019-03-20T11:07:27.789Z,41.50
2019-03-20T11:09:59.415Z,31.73
2019-03-20T11:12:31.085Z,30.77
2019-03-20T11:15:02.855Z,32.23
2019-03-20T11:17:34.450Z,29.30
2019-03-20T11:20:08.415Z,26.15
2019-03-20T11:22:40.183Z,32.00
2019-03-20T11:25:24.833Z,28.70
2019-03-20T11:27:56.191Z,25.08
2019-03-20T11:30:34.065Z,25.45
2019-03-20T11:33:06.026Z,27.35
2019-03-20T11:35:37.889Z,20.08
2019-03-20T11:38:10.155Z,20.52
2019-03-20T11:40:42.378Z,19.05
2019-03-20T11:43:14.186Z,21.62
2019-03-20T11:45:47.359Z,26.65
2019-03-20T11:48:19.555Z,19.32
2019-03-20T11:50:51.718Z,22.03
2019-03-20T11:53:23.470Z,23.30
2019-03-20T11:55:55.126Z,22.32
2019-03-20T11:58:26.893Z,24.25
2019-03-20T12:00:58.595Z,25.32
2019-03-20T12:03:29.855Z,27.62
2019-03-20T12:06:01.117Z,30.05
2019-03-20T12:08:32.471Z,32.80
2019-03-20T12:11:03.897Z,34.35
2019-03-20T12:13:35.728Z,31.10
2019-03-20T12:16:07.261Z,43.20
2019-03-20T12:18:40.390Z,39.03
2019-03-20T12:21:11.651Z,34.92
2019-03-20T12:23:43.034Z,37.08
2019-03-20T12:26:14.808Z,48.98
2019-03-20T12:28:46.147Z,46.68
2019-03-20T12:31:17.518Z,39.70
2019-03-20T12:33:48.924Z,44.75
2019-03-20T12:36:20.275Z,42.43
2019-03-20T12:38:51.733Z,40.50
2019-03-20T12:41:23.597Z,44.88
2019-03-20T12:43:54.789Z,40.90
2019-03-20T12:46:26.128Z,42.25
2019-03-20T12:48:59.704Z,46.20
2019-03-20T12:51:31.867Z,43.60
2019-03-20T12:54:03.155Z,46.48
2019-03-20T12:59:08.569Z,45.85
2019-03-20T13:01:40.384Z,48.35
2019-03-20T13:04:12.205Z,50.43
2019-03-20T13:06:43.849Z,38.55
2019-03-20T13:09:15.606Z,45.73
2019-03-20T13:11:47.302Z,40.83
2019-03-20T13:14:18.582Z,51.68
2019-03-20T13:16:49.938Z,49.33
2019-03-20T13:19:24.259Z,47.80
2019-03-20T13:21:55.615Z,51.13
2019-03-20T13:24:27.015Z,53.73
2019-03-20T13:26:59.752Z,47.17
2019-03-20T13:29:31.089Z,50.43
2019-03-20T13:32:03.747Z,56.33
2019-03-20T13:34:35.897Z,51.00
2019-03-20T13:37:08.362Z,45.73
2019-03-20T13:39:39.922Z,44.42
2019-03-20T13:42:12.347Z,60.48
2019-03-20T13:44:43.744Z,45.48
2019-03-20T13:47:15.109Z,50.15
2019-03-20T13:49:46.950Z,43.58
2019-03-20T14:22:20.744Z,50.52
2019-03-20T14:24:52.286Z,41.77
2019-03-20T14:27:23.601Z,42.03
2019-03-20T14:29:54.980Z,47.25
2019-03-20T14:32:26.384Z,45.28
2019-03-20T14:34:58.089Z,43.70
2019-03-20T14:37:29.468Z,46.63
2019-03-20T14:40:01.696Z,43.90
2019-03-20T14:42:33.102Z,52.48
2019-03-20T14:45:05.322Z,71.57
2019-03-20T14:47:42.042Z,44.03
2019-03-20T14:50:14.504Z,48.95
2019-03-20T14:52:52.139Z,46.40
2019-03-20T14:55:23.524Z,51.77
2019-03-20T14:57:54.848Z,48.68
2019-03-20T15:00:31.114Z,52.23
2019-03-20T15:03:02.494Z,78.45
2019-03-20T15:05:33.941Z,55.23
2019-03-20T15:08:05.323Z,68.05
2019-03-20T15:10:48.887Z,63.87
2019-03-20T15:13:20.343Z,59.95
2019-03-20T15:15:55.576Z,65.30
2019-03-20T15:18:27.051Z,54.15
2019-03-20T15:20:58.766Z,56.48
2019-03-20T15:23:30.219Z,57.48
2019-03-20T15:26:01.419Z,60.92
2019-03-20T15:28:32.773Z,70.45
2019-03-20T15:31:04.115Z,59.27
2019-03-20T15:33:35.667Z,56.75
2019-03-20T15:36:07.150Z,62.75
2019-03-20T15:38:38.512Z,57.98
2019-03-20T15:41:09.890Z,53.87
2019-03-20T15:43:41.255Z,62.93
2019-03-20T15:46:12.580Z,53.98
2019-03-20T15:48:44.174Z,63.58
2019-03-20T15:51:15.710Z,58.90
2019-03-20T15:53:47.506Z,61.60
2019-03-20T15:56:19.042Z,57.93
2019-03-20T15:58:50.371Z,62.05
2019-03-20T16:01:21.730Z,63.83
2019-03-20T16:03:53.053Z,62.65
2019-03-20T16:06:24.447Z,58.33
2019-03-20T16:08:56.909Z,64.75
2019-03-20T16:11:28.609Z,61.85
2019-03-20T16:13:59.777Z,66.25
2019-03-20T16:16:31.232Z,61.18
2019-03-20T16:19:02.612Z,51.30
2019-03-20T16:21:33.944Z,68.37
2019-03-20T16:24:06.596Z,58.30
2019-03-20T16:26:38.009Z,57.60
2019-03-20T16:29:09.316Z,59.48
2019-03-20T16:31:40.656Z,57.88
2019-03-20T16:34:12.163Z,62.30
2019-03-20T16:36:43.638Z,60.73
2019-03-20T16:39:14.905Z,79.97
2019-03-20T16:41:46.577Z,64.90
2019-03-20T16:44:17.953Z,88.95
2019-03-20T16:46:49.278Z,74.32
2019-03-20T16:49:20.689Z,58.85
2019-03-20T16:51:51.995Z,63.42
2019-03-20T16:54:25.334Z,55.70
2019-03-20T16:56:56.439Z,48.87
2019-03-20T16:59:27.753Z,53.23
2019-03-20T17:01:59.069Z,52.05
2019-03-20T17:04:30.439Z,49.33
2019-03-20T17:07:01.765Z,74.15
2019-03-20T17:09:33.223Z,67.20
2019-03-20T17:12:04.603Z,58.75
2019-03-20T17:14:35.927Z,66.90
2019-03-20T17:17:07.289Z,59.35
2019-03-20T17:19:38.659Z,57.10
2019-03-20T17:22:09.974Z,57.45
2019-03-20T17:24:41.326Z,52.70
2019-03-20T17:27:12.693Z,49.93
2019-03-20T17:29:44.127Z,52.70
2019-03-20T17:32:15.649Z,57.38
2019-03-20T17:34:46.912Z,44.67
2019-03-20T17:37:18.382Z,54.45
2019-03-20T17:39:49.671Z,50.30
2019-03-20T17:42:21.000Z,47.65
2019-03-20T17:44:52.325Z,48.73
2019-03-20T17:47:23.652Z,48.58
2019-03-20T17:49:55.070Z,48.45
2019-03-20T17:52:26.377Z,48.23
2019-03-20T17:54:57.668Z,52.03
2019-03-20T17:57:28.967Z,56.25
2019-03-20T18:00:00.332Z,68.75
2019-03-20T18:02:31.900Z,53.75
2019-03-20T18:05:03.576Z,46.92
2019-03-20T18:07:34.847Z,46.45
2019-03-20T18:10:06.693Z,50.15
2019-03-20T18:12:37.856Z,49.53
2019-03-20T18:15:12.489Z,49.70
2019-03-20T18:17:43.783Z,48.68
2019-03-20T18:20:20.213Z,46.10
2019-03-20T18:22:51.508Z,42.43
2019-03-20T18:25:22.841Z,46.88
2019-03-20T18:27:54.166Z,45.70
2019-03-20T18:30:28.139Z,45.63
2019-03-20T18:32:59.860Z,45.17
2019-03-20T18:35:31.177Z,40.38
2019-03-20T18:38:02.676Z,37.95
2019-03-20T18:40:33.857Z,41.37
2019-03-20T18:43:05.185Z,39.78
2019-03-20T18:45:36.570Z,40.60
2019-03-20T18:48:07.887Z,33.45
2019-03-20T18:50:39.273Z,42.90
2019-03-20T18:53:10.607Z,36.05
2019-03-20T18:55:41.954Z,38.45
2019-03-20T18:58:14.228Z,35.45
2019-03-20T19:00:45.461Z,37.08
2019-03-20T19:03:19.997Z,40.70
2019-03-20T19:05:57.418Z,42.08
2019-03-20T19:08:28.845Z,43.65
2019-03-20T19:11:00.368Z,38.53
2019-03-20T19:13:31.647Z,35.75
2019-03-20T19:16:02.998Z,41.48
2019-03-20T19:18:34.337Z,39.27
2019-03-20T19:21:05.690Z,31.48
2019-03-20T19:23:37.054Z,28.67
2019-03-20T19:26:08.518Z,25.23
2019-03-20T19:28:39.846Z,23.50
2019-03-20T19:31:11.180Z,24.80
2019-03-20T19:33:42.496Z,28.67
2019-03-20T19:36:13.742Z,25.00
2019-03-20T19:38:45.165Z,21.40
2019-03-20T19:41:16.479Z,19.55
2019-03-20T19:43:47.794Z,20.20
2019-03-20T19:46:19.062Z,21.48
2019-03-20T19:48:50.484Z,19.00
2019-03-20T19:51:21.773Z,20.55
2019-03-20T19:53:53.172Z,19.62
2019-03-20T19:56:24.421Z,22.25
2019-03-20T19:58:55.784Z,24.57
2019-03-20T20:01:27.245Z,16.27
2019-03-20T20:03:58.656Z,20.50
2019-03-20T20:06:29.984Z,19.23
2019-03-20T20:09:01.337Z,19.92
2019-03-20T20:14:04.664Z,18.32
2019-03-20T20:16:36.015Z,17.27
2019-03-20T20:19:07.377Z,20.02
2019-03-20T20:21:38.668Z,19.37
2019-03-20T20:24:09.987Z,17.12
2019-03-20T20:26:41.354Z,16.30
2019-03-20T20:29:13.881Z,16.40
2019-03-20T20:31:45.149Z,15.98
2019-03-20T20:34:16.362Z,12.88
2019-03-20T20:36:47.622Z,14.95
2019-03-20T20:39:18.830Z,13.45
2019-03-20T20:41:50.110Z,17.87
2019-03-20T20:44:21.430Z,15.60
2019-03-20T20:46:52.612Z,16.82
2019-03-20T20:49:23.823Z,13.90
2019-03-20T20:51:54.966Z,12.18
2019-03-20T20:54:26.173Z,14.40
2019-03-20T20:56:57.263Z,16.05
2019-03-20T20:59:28.520Z,13.75
2019-03-20T21:01:59.812Z,16.85
2019-03-20T21:04:31.378Z,16.27
2019-03-20T21:07:02.664Z,15.10
2019-03-20T21:09:33.800Z,16.23
2019-03-20T21:12:05.106Z,18.23
2019-03-20T21:14:36.330Z,18.92
2019-03-20T21:17:10.694Z,15.00
2019-03-20T21:19:43.170Z,15.38
2019-03-20T21:22:32.779Z,15.23
2019-03-20T21:25:04.050Z,13.28
2019-03-20T21:28:13.401Z,13.90
2019-03-20T21:30:53.677Z,15.70
2019-03-20T21:33:36.819Z,12.18
2019-03-20T21:36:33.811Z,13.18
2019-03-20T21:39:07.113Z,14.75
2019-03-20T21:41:53.482Z,13.80
2019-03-20T21:44:57.959Z,14.18
2019-03-20T21:47:35.890Z,16.40
2019-03-20T21:50:26.928Z,16.25
2019-03-20T21:52:58.273Z,16.27
2019-03-20T21:55:49.115Z,14.43
2019-03-20T21:58:23.533Z,15.20
2019-03-20T22:01:10.365Z,17.90
2019-03-20T22:03:43.778Z,15.13
2019-03-20T22:08:46.742Z,16.15
2019-03-20T22:11:33.333Z,15.40
2019-03-20T22:14:07.811Z,15.03
2019-03-20T22:16:58.475Z,16.60
2019-03-20T22:19:44.776Z,15.63
2019-03-20T22:22:39.045Z,17.12
2019-03-20T22:25:33.013Z,19.60
2019-03-20T22:28:23.675Z,17.95
2019-03-20T22:30:55.019Z,15.75
2019-03-20T22:34:03.478Z,18.70
2019-03-20T22:36:35.372Z,15.90
2019-03-20T22:39:12.592Z,19.23
2019-03-20T22:42:05.019Z,23.42
2019-03-20T22:44:38.096Z,18.70
2019-03-20T22:47:33.499Z,16.75
2019-03-20T22:50:17.137Z,18.17
2019-03-20T22:53:10.972Z,17.70
2019-03-20T22:55:54.093Z,13.32
2019-03-20T23:01:01.196Z,14.43
2019-03-20T23:03:37.014Z,16.50
2019-03-20T23:06:08.377Z,14.87
2019-03-20T23:08:40.129Z,10.88
2019-03-20T23:11:11.289Z,15.05
2019-03-20T23:13:42.519Z,13.43
2019-03-20T23:16:16.100Z,12.90
2019-03-20T23:18:47.354Z,13.10
2019-03-20T23:21:18.559Z,13.65
2019-03-20T23:23:49.659Z,12.20
2019-03-20T23:26:20.867Z,11.65
2019-03-20T23:28:52.196Z,15.75
2019-03-20T23:31:23.436Z,11.28
2019-03-20T23:33:54.593Z,12.60
2019-03-20T23:36:26.674Z,11.12
2019-03-20T23:38:57.753Z,11.75
2019-03-20T23:41:28.881Z,12.28
2019-03-20T23:44:01.082Z,11.73
2019-03-20T23:46:32.423Z,12.80
2019-03-20T23:49:09.664Z,13.98
2019-03-20T23:51:40.928Z,13.18
2019-03-20T23:54:13.514Z,14.15
2019-03-20T23:56:44.611Z,13.55
2019-03-20T23:59:15.773Z,14.07
